Time;durP1;ratioP1;P1;durP2;ratioP2;P2;SDS_P1;SDS_P2;PMS_P1;PMS_P2;Temp;Humidity;BMP_temperature;BMP_pressure;BME280_temperature;BME280_humidity;BME280_pressure;Samples;Min_cycle;Max_cycle;Signal;HPM_P1;HPM_P2
2022/12/09 00:02:28;;;;;;;41.00;17.40;;;;;;;1.78;85.22;99535.67;103374;1284;22475;-59
2022/12/09 00:05:00;;;;;;;40.40;16.40;;;;;;;1.78;85.11;99534.02;103469;1286;22937;-61
2022/12/09 00:07:31;;;;;;;40.30;17.10;;;;;;;1.78;85.22;99536.44;103343;1310;23875;-57
2022/12/09 00:10:03;;;;;;;38.90;16.20;;;;;;;1.80;85.23;99532.70;103288;1288;22776;-58
2022/12/09 00:12:35;;;;;;;40.30;19.10;;;;;;;1.81;85.25;99532.11;103435;1288;22475;-59
2022/12/09 00:15:08;;;;;;;44.20;18.70;;;;;;;1.82;85.28;99535.37;103486;1307;22611;-61
2022/12/09 00:17:39;;;;;;;38.90;15.70;;;;;;;1.82;85.20;99533.66;103494;1306;25656;-59
2022/12/09 00:20:14;;;;;;;41.50;17.20;;;;;;;1.80;85.05;99531.18;103376;1284;22536;-59
2022/12/09 00:22:45;;;;;;;38.50;16.50;;;;;;;1.82;85.25;99528.85;103660;1312;24249;-58
2022/12/09 00:25:17;;;;;;;40.40;17.50;;;;;;;1.83;85.16;99530.33;103374;1284;22738;-61
2022/12/09 00:27:49;;;;;;;46.10;18.70;;;;;;;1.81;85.09;99534.16;103673;1284;22749;-59
2022/12/09 00:30:20;;;;;;;44.30;18.90;;;;;;;1.79;85.09;99536.67;103533;1284;22592;-58
2022/12/09 00:32:52;;;;;;;44.10;18.10;;;;;;;1.78;85.21;99529.58;103539;1312;22540;-59
2022/12/09 00:35:25;;;;;;;41.80;18.10;;;;;;;1.77;85.22;99533.40;103386;1288;25393;-58
2022/12/09 00:37:56;;;;;;;48.20;20.00;;;;;;;1.75;85.36;99536.85;103604;1281;22483;-59
2022/12/09 00:40:28;;;;;;;44.30;18.20;;;;;;;1.73;85.18;99534.16;103418;1296;22498;-58
2022/12/09 00:42:59;;;;;;;46.60;19.40;;;;;;;1.73;85.44;99536.73;103689;1307;23499;-60
2022/12/09 00:45:31;;;;;;;40.50;18.40;;;;;;;1.72;85.18;99535.29;103351;1284;22517;-59
2022/12/09 00:48:02;;;;;;;45.40;19.90;;;;;;;1.69;85.18;99537.88;103360;1281;24869;-60
2022/12/09 00:50:34;;;;;;;41.80;18.30;;;;;;;1.67;85.17;99544.15;102409;1309;1451970;-63
2022/12/09 00:53:05;;;;;;;42.70;17.70;;;;;;;1.66;85.33;99542.27;103412;1285;22470;-59
2022/12/09 00:55:37;;;;;;;41.30;17.30;;;;;;;1.65;85.32;99541.19;103381;1291;22691;-58
2022/12/09 00:58:08;;;;;;;41.90;17.50;;;;;;;1.63;85.34;99544.96;103434;1307;22468;-59
2022/12/09 01:00:40;;;;;;;40.70;16.70;;;;;;;1.63;85.36;99543.63;103503;1287;25493;-58
2022/12/09 01:03:15;;;;;;;43.00;17.30;;;;;;;1.63;85.47;99545.77;103372;1285;22582;-61
2022/12/09 01:05:47;;;;;;;40.10;16.90;;;;;;;1.62;85.38;99545.46;103509;1306;22864;-58
2022/12/09 01:08:19;;;;;;;39.10;16.40;;;;;;;1.61;85.51;99543.19;103451;1299;24247;-59
2022/12/09 01:10:50;;;;;;;40.00;16.60;;;;;;;1.62;85.56;99540.66;103423;1307;22607;-59
2022/12/09 01:13:22;;;;;;;40.10;18.30;;;;;;;1.62;85.51;99538.15;103426;1288;24344;-59
2022/12/09 01:15:54;;;;;;;39.20;15.90;;;;;;;1.63;85.67;99531.29;103479;1288;22475;-61
2022/12/09 01:18:25;;;;;;;38.00;17.00;;;;;;;1.63;85.68;99531.30;103427;1308;24436;-58
2022/12/09 01:20:59;;;;;;;39.30;16.10;;;;;;;1.64;85.71;99533.77;103443;1307;22494;-59
2022/12/09 01:23:31;;;;;;;38.90;16.60;;;;;;;1.62;85.53;99534.86;103552;1280;22521;-59
2022/12/09 01:26:05;;;;;;;43.50;16.20;;;;;;;1.61;85.71;99535.42;103400;1306;22552;-61
2022/12/09 01:28:38;;;;;;;37.50;17.00;;;;;;;1.60;85.55;99530.40;103504;1296;22478;-59
2022/12/09 01:31:13;;;;;;;41.20;17.30;;;;;;;1.60;85.65;99529.80;103390;1288;25685;-59
2022/12/09 01:33:45;;;;;;;41.20;17.00;;;;;;;1.61;85.75;99528.20;103355;1281;22958;-59
2022/12/09 01:36:18;;;;;;;36.50;15.90;;;;;;;1.62;85.74;99527.85;104015;1284;24312;-61
2022/12/09 01:38:52;;;;;;;44.10;16.50;;;;;;;1.61;85.74;99530.02;103755;1306;24243;-62
2022/12/09 01:41:24;;;;;;;40.50;17.20;;;;;;;1.62;85.87;99527.55;103428;1306;25386;-62
2022/12/09 01:44:19;;;;;;;38.80;16.20;;;;;;;1.61;85.96;99530.31;103459;1285;22482;-58
2022/12/09 01:46:54;;;;;;;40.80;16.10;;;;;;;1.62;85.99;99532.50;103437;1288;25267;-61
2022/12/09 01:49:38;;;;;;;42.30;16.20;;;;;;;1.62;85.97;99535.23;103441;1285;22951;-59
2022/12/09 01:52:14;;;;;;;39.60;16.10;;;;;;;1.62;85.99;99534.29;103530;1306;22483;-58
2022/12/09 01:54:47;;;;;;;43.20;17.10;;;;;;;1.61;85.91;99530.08;103449;1306;26533;-59
2022/12/09 01:57:19;;;;;;;37.80;16.00;;;;;;;1.61;85.97;99523.23;103556;1298;22917;-60
2022/12/09 01:59:51;;;;;;;39.40;15.60;;;;;;;1.61;86.10;99523.02;103584;1306;22432;-59
2022/12/09 02:02:24;;;;;;;36.10;15.50;;;;;;;1.60;86.07;99520.90;103397;1281;22431;-60
2022/12/09 02:04:56;;;;;;;39.70;16.30;;;;;;;1.59;86.01;99521.64;103375;1286;22471;-61
2022/12/09 02:07:29;;;;;;;42.10;16.40;;;;;;;1.60;86.13;99522.48;103465;1283;22495;-59
2022/12/09 02:10:02;;;;;;;40.80;16.40;;;;;;;1.59;86.10;99525.40;103634;1285;24373;-60
2022/12/09 02:12:41;;;;;;;38.50;15.70;;;;;;;1.59;86.02;99524.63;103354;1281;24082;-59
2022/12/09 02:15:19;;;;;;;39.40;15.30;;;;;;;1.60;86.18;99523.11;103478;1286;25554;-58
2022/12/09 02:17:54;;;;;;;39.30;15.10;;;;;;;1.61;86.32;99522.94;103512;1306;22615;-62
2022/12/09 02:20:31;;;;;;;42.00;16.40;;;;;;;1.60;86.18;99524.52;103521;1281;23821;-60
2022/12/09 02:23:08;;;;;;;40.70;16.40;;;;;;;1.61;86.15;99526.86;103395;1285;23075;-59
2022/12/09 02:25:45;;;;;;;39.40;15.40;;;;;;;1.61;86.16;99527.56;103564;1281;22493;-61
2022/12/09 02:28:48;;;;;;;36.60;14.30;;;;;;;1.62;86.42;99529.73;103383;1283;25378;-59
2022/12/09 02:31:40;;;;;;;38.30;16.90;;;;;;;1.63;86.44;99528.85;103423;1283;22472;-60
2022/12/09 02:34:18;;;;;;;41.30;15.50;;;;;;;1.62;86.36;99527.14;103445;1306;22550;-59
2022/12/09 02:36:59;;;;;;;40.10;17.00;;;;;;;1.60;86.30;99522.79;103405;1283;24397;-61
2022/12/09 02:39:38;;;;;;;41.80;16.30;;;;;;;1.59;86.39;99516.38;103396;1300;22470;-59
2022/12/09 02:42:14;;;;;;;39.90;15.80;;;;;;;1.58;86.36;99514.52;103417;1306;22864;-61
2022/12/09 02:44:48;;;;;;;42.50;16.60;;;;;;;1.57;86.38;99513.78;103422;1306;22560;-59
2022/12/09 02:47:24;;;;;;;37.90;15.90;;;;;;;1.56;86.55;99515.99;103506;1283;25701;-60
2022/12/09 02:49:59;;;;;;;50.00;19.00;;;;;;;1.56;86.68;99514.98;103440;1293;25124;-60
2022/12/09 02:52:34;;;;;;;44.10;17.10;;;;;;;1.56;86.60;99516.08;103396;1306;25471;-60
2022/12/09 02:55:10;;;;;;;48.40;19.90;;;;;;;1.55;86.67;99518.21;103406;1285;25422;-61
2022/12/09 02:57:42;;;;;;;56.90;21.90;;;;;;;1.53;86.64;99515.77;103477;1288;24249;-60
2022/12/09 03:00:17;;;;;;;48.80;19.10;;;;;;;1.52;86.70;99516.12;103439;1285;22648;-59
2022/12/09 03:02:54;;;;;;;43.40;18.10;;;;;;;1.50;86.49;99519.08;103467;1294;23921;-59
2022/12/09 03:05:32;;;;;;;43.40;18.70;;;;;;;1.49;86.70;99516.73;103366;1277;22685;-59
2022/12/09 03:08:14;;;;;;;44.70;17.40;;;;;;;1.45;86.60;99508.98;103383;1285;24368;-60
2022/12/09 03:10:55;;;;;;;42.30;17.40;;;;;;;1.43;86.62;99507.64;103421;1280;22432;-59
2022/12/09 03:13:38;;;;;;;47.10;18.00;;;;;;;1.43;86.62;99500.98;103411;1281;22486;-60
2022/12/09 03:16:17;;;;;;;47.10;19.50;;;;;;;1.42;86.77;99501.62;103483;1277;22486;-58
2022/12/09 03:18:53;;;;;;;45.30;18.10;;;;;;;1.41;86.90;99503.52;103530;1306;22477;-61
2022/12/09 03:21:26;;;;;;;42.10;17.10;;;;;;;1.41;86.84;99506.50;103415;1306;25375;-59
2022/12/09 03:24:00;;;;;;;47.60;18.80;;;;;;;1.39;86.58;99507.04;103461;1306;22475;-59
2022/12/09 03:26:34;;;;;;;44.20;17.50;;;;;;;1.35;86.77;99505.41;103426;1281;22489;-60
2022/12/09 03:29:11;;;;;;;41.40;17.20;;;;;;;1.34;86.71;99506.39;103308;1306;22879;-61
2022/12/09 03:31:43;;;;;;;40.80;17.30;;;;;;;1.31;86.81;99503.63;103452;1281;22516;-57
2022/12/09 03:34:18;;;;;;;41.70;17.30;;;;;;;1.31;86.80;99498.15;103348;1286;23082;-60
2022/12/09 03:36:52;;;;;;;41.20;17.90;;;;;;;1.30;86.89;99499.13;103430;1283;22755;-59
2022/12/09 03:39:37;;;;;;;40.50;17.10;;;;;;;1.29;86.84;99500.39;103501;1285;22527;-59
2022/12/09 03:42:16;;;;;;;39.80;18.50;;;;;;;1.27;86.95;99501.63;103695;1285;22881;-62
2022/12/09 03:44:52;;;;;;;48.90;19.50;;;;;;;1.24;86.87;99500.77;104372;1306;22481;-58
2022/12/09 03:47:23;;;;;;;45.90;18.50;;;;;;;1.21;86.71;99501.73;103461;1284;24257;-59
2022/12/09 03:49:55;;;;;;;36.40;17.00;;;;;;;1.18;86.97;99501.17;103451;1306;25357;-59
2022/12/09 03:52:32;;;;;;;48.80;17.00;;;;;;;1.17;86.88;99497.43;103356;1284;25312;-58
2022/12/09 03:55:08;;;;;;;54.30;17.40;;;;;;;1.15;87.01;99494.35;103452;1285;22471;-59
2022/12/09 03:57:43;;;;;;;44.20;17.30;;;;;;;1.15;87.16;99495.14;103375;1306;22496;-60
2022/12/09 04:00:16;;;;;;;46.50;18.80;;;;;;;1.16;87.27;99496.91;103451;1306;22481;-59
2022/12/09 04:02:48;;;;;;;42.70;18.70;;;;;;;1.14;87.00;99492.57;103433;1306;22601;-61
2022/12/09 04:05:22;;;;;;;50.40;20.20;;;;;;;1.11;87.02;99490.13;103391;1306;22490;-59
2022/12/09 04:07:54;;;;;;;42.30;18.00;;;;;;;1.09;87.05;99488.70;103360;1281;22529;-58
2022/12/09 04:10:27;;;;;;;42.70;17.40;;;;;;;1.07;87.03;99488.75;103533;1280;22652;-57
2022/12/09 04:12:58;;;;;;;44.20;17.90;;;;;;;1.03;86.80;99487.36;103466;1306;22495;-59
2022/12/09 04:15:30;;;;;;;40.60;17.20;;;;;;;1.00;86.94;99485.25;103571;1277;22557;-57
2022/12/09 04:18:01;;;;;;;44.20;18.30;;;;;;;0.98;87.04;99486.30;103188;1281;25465;-60
2022/12/09 04:20:33;;;;;;;46.10;18.20;;;;;;;0.96;87.02;99489.50;103499;1306;25930;-57
2022/12/09 04:23:05;;;;;;;42.80;18.70;;;;;;;0.94;86.98;99490.52;103426;1306;22462;-58
2022/12/09 04:25:38;;;;;;;42.30;18.00;;;;;;;0.90;86.80;99490.38;103393;1306;22471;-58
2022/12/09 04:28:10;;;;;;;46.70;19.60;;;;;;;0.87;86.97;99486.91;103451;1281;22471;-58
2022/12/09 04:30:46;;;;;;;49.30;21.90;;;;;;;0.88;87.21;99489.02;103401;1284;24304;-59
2022/12/09 04:33:18;;;;;;;54.40;21.40;;;;;;;0.87;87.13;99498.45;103440;1285;25310;-59
2022/12/09 04:35:49;;;;;;;54.40;23.30;;;;;;;0.86;87.14;99494.55;103530;1292;22470;-58
2022/12/09 04:38:21;;;;;;;67.50;29.40;;;;;;;0.86;87.27;99495.57;103568;1291;24019;-60
2022/12/09 04:40:52;;;;;;;69.90;30.10;;;;;;;0.85;87.09;99498.83;103417;1285;22479;-58
2022/12/09 04:43:25;;;;;;;63.00;28.00;;;;;;;0.82;87.04;99496.06;103402;1283;22474;-59
2022/12/09 04:46:00;;;;;;;59.50;26.90;;;;;;;0.76;87.08;99492.69;103415;1278;25405;-58
2022/12/09 04:48:32;;;;;;;61.50;25.70;;;;;;;0.75;87.37;99494.75;103399;1285;24313;-58
2022/12/09 04:51:05;;;;;;;56.30;26.80;;;;;;;0.75;87.28;99495.86;103381;1286;22495;-59
2022/12/09 04:53:36;;;;;;;60.20;24.80;;;;;;;0.72;87.24;99495.36;103374;1306;22696;-59
2022/12/09 04:56:12;;;;;;;60.40;26.00;;;;;;;0.70;87.13;99495.50;103462;1284;25713;-59
2022/12/09 04:58:47;;;;;;;61.00;25.30;;;;;;;0.68;87.18;99494.61;103426;1306;23194;-60
2022/12/09 05:01:20;;;;;;;53.00;23.80;;;;;;;0.68;87.36;99495.89;103372;1281;22492;-59
2022/12/09 05:03:53;;;;;;;53.90;23.60;;;;;;;0.67;87.16;99493.70;103399;1293;22895;-60
2022/12/09 05:06:25;;;;;;;51.30;23.50;;;;;;;0.64;87.09;99499.73;103407;1283;22573;-59
2022/12/09 05:08:56;;;;;;;47.30;22.10;;;;;;;0.61;86.96;99499.49;103350;1306;22560;-59
2022/12/09 05:11:28;;;;;;;47.50;21.40;;;;;;;0.61;87.02;99505.86;103422;1298;22414;-61
2022/12/09 05:14:01;;;;;;;49.60;21.80;;;;;;;0.58;86.89;99506.56;103482;1285;22620;-59
2022/12/09 05:16:33;;;;;;;52.30;23.00;;;;;;;0.55;86.64;99509.31;103363;1281;22592;-59
2022/12/09 05:19:05;;;;;;;46.90;19.80;;;;;;;0.51;86.59;99510.55;103540;1283;24313;-58
2022/12/09 05:21:37;;;;;;;55.00;23.70;;;;;;;0.46;86.42;99512.42;103401;1283;25376;-61
2022/12/09 05:24:09;;;;;;;48.80;20.70;;;;;;;0.40;86.34;99512.98;103423;1275;24856;-61
2022/12/09 05:26:41;;;;;;;55.60;21.30;;;;;;;0.36;86.61;99510.62;103509;1306;22519;-59
2022/12/09 05:29:12;;;;;;;48.30;21.60;;;;;;;0.35;86.68;99509.16;103442;1284;22467;-59
2022/12/09 05:31:44;;;;;;;41.40;19.60;;;;;;;0.34;86.70;99511.68;103484;1285;24308;-58
2022/12/09 05:34:15;;;;;;;48.30;20.00;;;;;;;0.33;86.77;99514.98;103460;1306;22449;-59
2022/12/09 05:36:47;;;;;;;51.30;21.40;;;;;;;0.27;86.19;99515.23;103409;1306;22536;-59
2022/12/09 05:39:18;;;;;;;52.40;21.70;;;;;;;0.19;86.45;99516.42;103477;1298;22481;-59
2022/12/09 05:41:50;;;;;;;46.90;20.20;;;;;;;0.15;86.44;99514.48;103377;1306;22891;-58
2022/12/09 05:44:21;;;;;;;46.80;20.40;;;;;;;0.07;86.52;99517.41;103412;1299;22470;-56
2022/12/09 05:46:56;;;;;;;45.40;20.10;;;;;;;0.04;86.68;99519.66;103391;1306;24295;-59
2022/12/09 05:49:28;;;;;;;48.90;20.30;;;;;;;0.03;86.96;99520.39;103823;1306;22483;-59
2022/12/09 05:52:00;;;;;;;49.80;21.80;;;;;;;-0.00;87.18;99516.48;104515;1290;25660;-60
2022/12/09 05:54:31;;;;;;;63.10;25.60;;;;;;;-0.00;87.31;99520.06;103503;1285;22478;-60
2022/12/09 05:57:03;;;;;;;68.90;27.30;;;;;;;-0.04;87.14;99523.65;103503;1306;24046;-58
2022/12/09 05:59:35;;;;;;;68.10;25.60;;;;;;;-0.06;87.28;99528.02;103539;1292;22476;-60
2022/12/09 06:02:07;;;;;;;62.40;26.00;;;;;;;-0.07;87.43;99524.84;103398;1306;22498;-60
2022/12/09 06:04:39;;;;;;;54.50;21.40;;;;;;;-0.07;87.37;99527.73;103421;1283;24291;-57
2022/12/09 06:07:10;;;;;;;52.80;22.90;;;;;;;-0.10;87.40;99522.31;103421;1285;22480;-61
2022/12/09 06:09:43;;;;;;;59.10;25.40;;;;;;;-0.09;87.62;99523.77;103289;1306;26519;-59
2022/12/09 06:12:15;;;;;;;56.00;22.40;;;;;;;-0.08;87.73;99522.36;103432;1306;26637;-59
2022/12/09 06:14:46;;;;;;;55.90;22.90;;;;;;;-0.08;87.77;99520.14;103402;1278;25353;-59
2022/12/09 06:17:18;;;;;;;53.80;21.00;;;;;;;-0.07;87.83;99519.83;103422;1285;22425;-57
2022/12/09 06:19:49;;;;;;;49.80;21.00;;;;;;;-0.07;87.84;99519.89;103428;1306;24369;-58
2022/12/09 06:22:20;;;;;;;51.40;21.20;;;;;;;-0.05;88.14;99518.75;103407;1281;22740;-60
2022/12/09 06:24:52;;;;;;;50.60;22.00;;;;;;;-0.05;88.01;99515.77;103440;1298;22734;-57
2022/12/09 06:27:23;;;;;;;52.70;22.00;;;;;;;-0.04;88.23;99516.53;103344;1306;25928;-59
2022/12/09 06:29:55;;;;;;;47.50;19.90;;;;;;;-0.03;88.30;99516.10;103328;1285;25930;-59
2022/12/09 06:32:26;;;;;;;59.00;23.60;;;;;;;0.00;88.38;99516.54;103411;1283;24014;-58
2022/12/09 06:34:58;;;;;;;59.30;24.00;;;;;;;0.01;88.46;99519.48;103418;1283;25461;-60
2022/12/09 06:37:31;;;;;;;53.90;21.60;;;;;;;0.04;88.43;99518.27;103287;1281;22481;-59
2022/12/09 06:40:02;;;;;;;54.10;22.70;;;;;;;0.04;88.47;99518.73;103258;1285;22912;-65
2022/12/09 06:42:34;;;;;;;58.00;22.70;;;;;;;0.04;88.35;99518.09;103383;1278;22497;-61
2022/12/09 06:45:06;;;;;;;58.70;23.30;;;;;;;0.06;88.43;99517.35;103320;1306;22524;-65
2022/12/09 06:47:37;;;;;;;55.20;23.70;;;;;;;0.06;88.38;99517.42;103365;1281;25335;-60
2022/12/09 06:50:11;;;;;;;56.20;24.10;;;;;;;0.07;88.47;99515.13;103310;1283;22485;-59
2022/12/09 06:52:43;;;;;;;63.10;25.30;;;;;;;0.07;88.41;99516.92;103346;1306;24289;-60
2022/12/09 06:55:14;;;;;;;68.20;29.20;;;;;;;0.07;88.37;99512.92;105112;1281;22550;-59
2022/12/09 06:57:46;;;;;;;65.70;28.40;;;;;;;0.07;88.37;99511.84;103388;1296;26005;-61
2022/12/09 07:00:19;;;;;;;69.80;29.60;;;;;;;0.05;88.36;99513.29;103414;1300;24257;-59
2022/12/09 07:02:51;;;;;;;144.70;77.70;;;;;;;0.04;88.30;99511.98;103372;1285;24308;-59
2022/12/09 07:05:23;;;;;;;166.70;91.20;;;;;;;0.02;88.23;99512.80;103266;1291;22525;-59
2022/12/09 07:07:54;;;;;;;148.00;81.10;;;;;;;-0.02;88.12;99515.15;103540;1284;22483;-61
2022/12/09 07:10:26;;;;;;;132.60;67.90;;;;;;;-0.04;88.02;99515.84;103449;1285;22492;-61
2022/12/09 07:12:57;;;;;;;85.60;43.70;;;;;;;-0.07;88.03;99515.66;103351;1298;22816;-59
2022/12/09 07:15:29;;;;;;;105.50;54.50;;;;;;;-0.11;88.05;99513.63;103273;1283;22635;-55
2022/12/09 07:18:01;;;;;;;96.90;49.30;;;;;;;-0.11;88.38;99511.52;103350;1306;24212;-61
2022/12/09 07:20:32;;;;;;;91.90;45.60;;;;;;;-0.10;88.46;99514.78;103383;1285;25382;-61
2022/12/09 07:23:04;;;;;;;82.10;38.90;;;;;;;-0.11;88.32;99516.08;103282;1306;24233;-60
2022/12/09 07:25:35;;;;;;;72.20;32.20;;;;;;;-0.14;88.15;99517.45;103214;1306;22489;-60
2022/12/09 07:28:07;;;;;;;72.00;32.90;;;;;;;-0.15;88.16;99519.20;103168;1278;22478;-61
2022/12/09 07:30:40;;;;;;;64.70;31.50;;;;;;;-0.15;88.38;99517.95;103225;1285;24385;-62
2022/12/09 07:33:11;;;;;;;70.50;34.10;;;;;;;-0.15;88.54;99522.59;103085;1277;22989;-62
2022/12/09 07:35:43;;;;;;;74.70;33.90;;;;;;;-0.14;88.53;99522.88;103120;1306;22480;-65
2022/12/09 07:38:14;;;;;;;64.30;30.10;;;;;;;-0.15;88.50;99519.44;103223;1285;24044;-61
2022/12/09 07:40:46;;;;;;;60.10;28.70;;;;;;;-0.15;88.62;99523.44;103227;1293;22474;-61
2022/12/09 07:43:17;;;;;;;70.40;31.00;;;;;;;-0.14;88.80;99525.52;103314;1284;25318;-63
2022/12/09 07:45:50;;;;;;;81.70;32.40;;;;;;;-0.12;88.86;99525.02;103238;1301;22456;-65
2022/12/09 07:48:21;;;;;;;77.00;31.00;;;;;;;-0.11;88.86;99524.06;103243;1292;23218;-62
2022/12/09 07:50:52;;;;;;;72.20;31.70;;;;;;;-0.09;88.94;99527.62;103247;1308;22695;-61
2022/12/09 07:53:24;;;;;;;81.50;32.50;;;;;;;-0.09;89.00;99525.58;103369;1307;25384;-62
2022/12/09 07:55:56;;;;;;;82.30;33.80;;;;;;;-0.09;89.17;99529.33;103715;1278;22473;-61
2022/12/09 07:58:27;;;;;;;86.90;35.70;;;;;;;-0.09;89.14;99533.81;104024;1278;24244;-62
2022/12/09 08:01:04;;;;;;;83.90;33.10;;;;;;;-0.09;89.20;99530.76;103970;1278;24014;-60
2022/12/09 08:03:35;;;;;;;89.80;36.50;;;;;;;-0.07;89.45;99532.44;103749;1285;22478;-60
2022/12/09 08:06:08;;;;;;;74.10;32.70;;;;;;;-0.06;89.45;99533.97;104188;1297;23998;-62
2022/12/09 08:08:39;;;;;;;74.80;33.60;;;;;;;-0.05;89.51;99533.80;103651;1309;24234;-61
2022/12/09 08:11:13;;;;;;;82.40;38.80;;;;;;;-0.04;89.50;99534.80;103345;1277;22417;-60
2022/12/09 08:13:44;;;;;;;86.90;36.30;;;;;;;-0.02;89.64;99536.48;103534;1307;22547;-62
2022/12/09 08:16:18;;;;;;;71.00;35.00;;;;;;;-0.02;89.59;99537.02;103288;1279;22470;-60
2022/12/09 08:18:50;;;;;;;83.20;36.10;;;;;;;-0.02;89.64;99538.75;103238;1285;22473;-60
2022/12/09 08:21:23;;;;;;;81.00;36.80;;;;;;;0.00;89.65;99540.74;103281;1277;25729;-60
2022/12/09 08:23:57;;;;;;;75.00;35.50;;;;;;;0.04;89.75;99536.45;103378;1285;22480;-60
2022/12/09 08:26:31;;;;;;;72.60;35.80;;;;;;;0.04;89.71;99536.13;103206;1285;24346;-61
2022/12/09 08:29:06;;;;;;;79.40;34.70;;;;;;;0.03;89.73;99527.75;103154;1277;22899;-61
2022/12/09 08:31:37;;;;;;;78.60;34.20;;;;;;;0.06;89.89;99529.03;103192;1277;24820;-62
2022/12/09 08:34:09;;;;;;;81.40;36.40;;;;;;;0.09;89.89;99526.05;103332;1285;22981;-62
2022/12/09 08:36:41;;;;;;;78.90;35.70;;;;;;;0.12;89.91;99529.20;103234;1281;23202;-62
2022/12/09 08:39:13;;;;;;;79.40;35.40;;;;;;;0.16;89.80;99534.13;103197;1278;25439;-62
2022/12/09 08:41:45;;;;;;;77.90;33.80;;;;;;;0.18;89.73;99533.62;103346;1301;22467;-62
2022/12/09 08:44:19;;;;;;;90.80;38.20;;;;;;;0.17;89.83;99533.71;103895;1293;22645;-62
2022/12/09 08:46:52;;;;;;;80.20;36.70;;;;;;;0.19;89.84;99533.60;103179;1282;22430;-60
2022/12/09 08:49:23;;;;;;;74.70;34.00;;;;;;;0.21;89.79;99533.55;103228;1280;22482;-62
2022/12/09 08:51:55;;;;;;;80.10;35.20;;;;;;;0.24;89.81;99538.50;103394;1277;24840;-62
2022/12/09 08:54:27;;;;;;;74.20;35.90;;;;;;;0.27;89.78;99535.05;103346;1278;24487;-60
2022/12/09 08:56:58;;;;;;;76.40;35.80;;;;;;;0.29;89.78;99536.97;103399;1298;22487;-62
2022/12/09 08:59:30;;;;;;;76.20;33.20;;;;;;;0.32;89.93;99538.72;103431;1281;22627;-62
2022/12/09 09:02:01;;;;;;;80.30;32.50;;;;;;;0.33;89.77;99532.88;103292;1283;26488;-63
2022/12/09 09:04:35;;;;;;;78.90;32.60;;;;;;;0.33;89.79;99537.11;103165;1298;22475;-61
2022/12/09 09:07:08;;;;;;;76.20;32.70;;;;;;;0.35;89.78;99535.66;103371;1277;22561;-62
2022/12/09 09:09:40;;;;;;;82.10;36.40;;;;;;;0.38;89.87;99531.20;103338;1306;22478;-62
2022/12/09 09:12:12;;;;;;;87.70;37.10;;;;;;;0.40;89.84;99526.76;103166;1293;25431;-62
2022/12/09 09:14:44;;;;;;;76.90;34.60;;;;;;;0.43;90.00;99525.92;103247;1305;24446;-64
2022/12/09 09:17:16;;;;;;;74.80;33.00;;;;;;;0.45;90.05;99520.76;103233;1283;25590;-63
2022/12/09 09:19:47;;;;;;;74.70;34.10;;;;;;;0.48;90.03;99519.91;103221;1276;23290;-63
2022/12/09 09:22:19;;;;;;;75.50;32.60;;;;;;;0.51;90.04;99517.39;103235;1283;25836;-63
2022/12/09 09:24:52;;;;;;;73.80;30.00;;;;;;;0.52;90.07;99512.35;103458;1298;24379;-63
2022/12/09 09:27:24;;;;;;;73.90;31.80;;;;;;;0.55;90.07;99506.55;103195;1294;22874;-63
2022/12/09 09:29:55;;;;;;;75.30;29.90;;;;;;;0.59;90.17;99509.52;103237;1306;22497;-62
2022/12/09 09:32:26;;;;;;;69.90;30.40;;;;;;;0.62;90.15;99510.77;103444;1278;26055;-65
2022/12/09 09:34:58;;;;;;;61.80;27.20;;;;;;;0.66;90.17;99514.77;103140;1277;22865;-63
2022/12/09 09:37:30;;;;;;;59.90;27.50;;;;;;;0.68;90.06;99516.36;103208;1293;22488;-62
2022/12/09 09:40:02;;;;;;;56.10;25.70;;;;;;;0.71;90.10;99510.44;103353;1285;23595;-64
2022/12/09 09:42:44;;;;;;;63.50;27.60;;;;;;;0.75;90.04;99511.55;103294;1285;22742;-64
2022/12/09 09:45:19;;;;;;;63.00;28.30;;;;;;;0.79;89.92;99508.48;103249;1285;22880;-64
2022/12/09 09:47:57;;;;;;;64.90;28.30;;;;;;;0.83;89.93;99508.84;103417;1291;23697;-64
2022/12/09 09:50:34;;;;;;;58.40;26.90;;;;;;;0.88;89.99;99509.10;103433;1285;22477;-63
2022/12/09 09:53:17;;;;;;;58.20;25.70;;;;;;;0.92;89.98;99510.42;103136;1285;22500;-62
2022/12/09 09:55:52;;;;;;;53.50;22.20;;;;;;;0.96;89.87;99507.40;103297;1283;22499;-64
2022/12/09 09:58:34;;;;;;;49.60;20.90;;;;;;;1.01;89.78;99502.81;103063;1281;25313;-63
2022/12/09 10:01:10;;;;;;;45.20;17.30;;;;;;;1.04;89.65;99498.88;103242;1277;22866;-64
2022/12/09 10:04:01;;;;;;;38.60;15.20;;;;;;;1.07;89.50;99496.13;103799;1285;22533;-64
2022/12/09 10:06:43;;;;;;;39.10;16.80;;;;;;;1.12;89.40;99494.52;103418;1277;24455;-61
2022/12/09 10:09:21;;;;;;;45.10;16.10;;;;;;;1.15;89.32;99497.58;103178;1284;22470;-63
2022/12/09 10:11:58;;;;;;;36.20;14.80;;;;;;;1.18;89.13;99492.05;103195;1284;22508;-60
2022/12/09 10:14:44;;;;;;;40.80;17.20;;;;;;;1.21;89.11;99494.36;103310;1283;26719;-64
2022/12/09 10:17:26;;;;;;;43.00;18.60;;;;;;;1.24;89.36;99488.77;103485;1285;24260;-62
2022/12/09 10:20:38;;;;;;;44.50;18.30;;;;;;;1.27;89.25;99490.42;103380;1282;22513;-60
2022/12/09 10:23:16;;;;;;;43.80;17.30;;;;;;;1.31;89.46;99492.48;102913;1277;22467;-61
2022/12/09 10:25:52;;;;;;;47.20;19.10;;;;;;;1.37;89.51;99488.64;102868;1284;24701;-60
2022/12/09 10:28:27;;;;;;;44.30;19.60;;;;;;;1.40;89.48;99489.87;102867;1306;22472;-58
2022/12/09 10:30:58;;;;;;;50.10;21.20;;;;;;;1.45;89.64;99486.67;106773;1306;22254;-60
2022/12/09 10:33:34;;;;;;;43.20;19.10;;;;;;;1.49;89.45;99488.45;106765;1277;22335;-60
2022/12/09 10:36:07;;;;;;;43.80;18.00;;;;;;;1.53;89.39;99488.27;103014;1301;23100;-58
2022/12/09 10:38:42;;;;;;;41.50;17.70;;;;;;;1.57;89.37;99488.08;102930;1292;22476;-60
2022/12/09 10:44:22;;;;;;;38.10;14.90;;;;;;;1.67;89.16;99478.13;102821;1291;22842;-59
2022/12/09 10:47:01;;;;;;;40.90;15.00;;;;;;;1.73;89.10;99473.08;102805;1281;22486;-59
2022/12/09 10:49:33;;;;;;;36.00;14.50;;;;;;;1.78;88.76;99471.34;103233;1277;24356;-60
2022/12/09 10:52:05;;;;;;;36.40;14.70;;;;;;;1.83;88.83;99466.64;103524;1282;22692;-58
2022/12/09 10:54:40;;;;;;;40.80;16.60;;;;;;;1.87;88.67;99460.86;102899;1285;26521;-59
2022/12/09 10:57:26;;;;;;;38.50;14.80;;;;;;;1.91;88.46;99453.34;103003;1306;22446;-59
2022/12/09 11:00:05;;;;;;;39.80;17.70;;;;;;;1.97;88.57;99450.64;102929;1301;25241;-59
2022/12/09 11:02:36;;;;;;;39.30;17.90;;;;;;;2.03;88.80;99444.94;102973;1302;24444;-60
2022/12/09 11:05:26;;;;;;;42.10;16.90;;;;;;;2.07;88.56;99441.75;102894;1283;24337;-60
2022/12/09 11:07:59;;;;;;;42.80;17.80;;;;;;;2.12;88.22;99438.44;102906;1283;22498;-58
2022/12/09 11:10:31;;;;;;;46.80;21.00;;;;;;;2.15;87.91;99436.27;103034;1285;22529;-62
2022/12/09 11:13:06;;;;;;;47.80;20.70;;;;;;;2.20;87.99;99432.84;103031;1301;25225;-60
2022/12/09 11:15:40;;;;;;;49.50;20.50;;;;;;;2.25;88.68;99428.48;102928;1284;22494;-58
2022/12/09 11:18:21;;;;;;;42.20;17.70;;;;;;;2.30;88.57;99428.67;102910;1278;24251;-59
2022/12/09 11:20:59;;;;;;;43.40;17.90;;;;;;;2.34;88.30;99426.48;102978;1306;25216;-60
2022/12/09 11:23:31;;;;;;;37.10;16.60;;;;;;;2.39;88.51;99423.81;103207;1288;22628;-67
2022/12/09 11:26:04;;;;;;;39.70;15.20;;;;;;;2.43;88.26;99419.17;102958;1285;25396;-58
2022/12/09 11:28:38;;;;;;;39.50;17.40;;;;;;;2.48;87.90;99417.59;102960;1278;24207;-60
2022/12/09 11:31:18;;;;;;;43.20;18.90;;;;;;;2.52;87.95;99415.89;103026;1285;22486;-59
2022/12/09 11:33:53;;;;;;;42.50;17.20;;;;;;;2.53;88.06;99406.56;103073;1278;23592;-60
2022/12/09 11:36:27;;;;;;;49.60;21.20;;;;;;;2.54;88.04;99406.45;103027;1306;22496;-59
2022/12/09 11:39:17;;;;;;;50.90;20.60;;;;;;;2.56;88.08;99405.85;102895;1291;25381;-60
2022/12/09 11:44:48;;;;;;;42.10;17.30;;;;;;;2.58;87.66;99403.95;102794;1306;22490;-62
2022/12/09 11:47:29;;;;;;;39.60;16.50;;;;;;;2.60;87.66;99406.42;102766;1300;22506;-59
2022/12/09 11:50:12;;;;;;;40.60;16.90;;;;;;;2.62;87.92;99405.24;102715;1285;22542;-64
2022/12/09 11:52:44;;;;;;;44.50;19.80;;;;;;;2.64;87.94;99401.71;102729;1301;22486;-57
2022/12/09 11:55:20;;;;;;;41.70;17.50;;;;;;;2.67;87.73;99398.70;103130;1277;22481;-60